»·PEaware :: N330ME KSLI-KSNS

N330ME :: KSLI-KSNS

FLIGHT INFORMATION

Flight Status: Arrived
Operator: Privately registered:
United States
More flights under this callsign
Pilot: Daniel B. (28719)
Aircraft: CESSNA 172 SKYHAWK
(C172)
More flights by this aircraft type
Origin: KSLI Los Alamitos AAF
United States
Destination: KSNS Salinas Mun
United States
More flights between these airports :: More routes between these airports
Route: SLI V23 LAX V299 VTU V25 SNS
File this flight plan on PilotEdge
Remarks:
Altitude:
(Current/Filed)
12,000ft
Speed:
(Current/Filed)
115kts
Departed: 28-Dec-20 12:00 PM
Arrived: 28-Dec-20 02:26 PM
Distance/Time
Traveled:
245nm/2:26
Distance/Time
To Go:
Arrived

Flight Plot

Page will automatically refresh every two minutes.

Flight plan parsing failed; only flown route is shown


Map Options




Map Legend


Flown Route
Filed Route
Departure Airport
Arrival Airport
Navaid (VOR, NDB)
Fix

Horizontal Profiles

Position Reports

Time Latitude Longitude Heading Altitude Ground
Speed
28-Dec-20 11:22 33.792111 -118.052978 182 27ft 0kts
28-Dec-20 11:23 33.792111 -118.052978 182 27ft 0kts
28-Dec-20 11:24 33.792111 -118.052978 182 27ft 0kts
28-Dec-20 11:25 33.792111 -118.052978 182 27ft 0kts
28-Dec-20 11:26 33.792111 -118.052978 182 27ft 0kts
28-Dec-20 11:27 33.792111 -118.052978 182 27ft 0kts
28-Dec-20 11:28 33.792111 -118.052978 182 27ft 0kts
28-Dec-20 11:29 33.792111 -118.052978 182 27ft 0kts
28-Dec-20 11:30 33.792111 -118.052978 182 27ft 0kts
28-Dec-20 11:31 33.792111 -118.052978 182 27ft 0kts
28-Dec-20 11:32 33.792111 -118.052978 182 27ft 0kts
28-Dec-20 11:33 33.792111 -118.052978 182 27ft 0kts
28-Dec-20 11:34 33.792111 -118.052978 182 27ft 0kts
28-Dec-20 11:35 33.792111 -118.052978 182 27ft 0kts
28-Dec-20 11:36 33.792111 -118.052978 182 27ft 0kts
28-Dec-20 11:37 33.792111 -118.052978 182 27ft 0kts
28-Dec-20 11:38 33.792111 -118.052978 182 27ft 0kts
28-Dec-20 11:39 33.792111 -118.052978 182 27ft 0kts
28-Dec-20 11:40 33.792111 -118.052978 182 27ft 0kts
28-Dec-20 11:41 33.792111 -118.052978 182 27ft 0kts
28-Dec-20 11:42 33.792085 -118.052979 182 27ft 0kts
28-Dec-20 11:43 33.792085 -118.052979 182 27ft 0kts
28-Dec-20 11:44 33.792085 -118.052979 182 27ft 0kts
28-Dec-20 11:45 33.792085 -118.052979 182 27ft 0kts
28-Dec-20 11:46 33.792085 -118.052979 182 27ft 0kts
28-Dec-20 11:47 33.792085 -118.052979 182 27ft 0kts
28-Dec-20 11:48 33.792085 -118.052979 182 27ft 0kts
28-Dec-20 11:49 33.792085 -118.052979 182 27ft 0kts
28-Dec-20 11:50 33.792085 -118.052979 182 27ft 0kts
28-Dec-20 11:51 33.792085 -118.052979 182 27ft 0kts
28-Dec-20 11:52 33.791927 -118.052971 180 27ft 0kts
28-Dec-20 11:53 33.792786 -118.050607 55 27ft 21kts
28-Dec-20 11:54 33.795093 -118.046732 144 30ft 2kts
28-Dec-20 11:55 33.795092 -118.046731 144 30ft 0kts
28-Dec-20 11:56 33.795092 -118.046731 144 30ft 0kts
28-Dec-20 11:57 33.795092 -118.046731 144 30ft 0kts
28-Dec-20 11:58 33.795092 -118.046731 144 30ft 0kts
28-Dec-20 11:59 33.792882 -118.049118 236 27ft 67kts
28-Dec-20 12:00 33.790967 -118.067633 276 535ft 94kts
28-Dec-20 12:01 33.792179 -118.091414 272 930ft 111kts
28-Dec-20 12:02 33.794435 -118.115216 289 1311ft 111kts
28-Dec-20 12:03 33.801042 -118.137056 291 1620ft 114kts
28-Dec-20 12:04 33.808451 -118.159026 297 1928ft 114kts
28-Dec-20 12:05 33.815901 -118.180852 293 2408ft 100kts
28-Dec-20 12:06 33.821796 -118.200760 292 2965ft 93kts
28-Dec-20 12:07 33.826389 -118.219734 293 3619ft 80kts
28-Dec-20 12:08 33.831284 -118.238476 294 4199ft 82kts
28-Dec-20 12:09 33.836836 -118.257867 295 4809ft 81kts
28-Dec-20 12:10 33.842490 -118.278266 295 5381ft 83kts
28-Dec-20 12:11 33.847926 -118.299245 295 6021ft 79kts
28-Dec-20 12:12 33.855269 -118.326629 289 6062ft 116kts
28-Dec-20 12:13 33.868619 -118.361573 316 6064ft 141kts
28-Dec-20 12:14 33.896294 -118.389743 317 5994ft 138kts
28-Dec-20 12:15 33.921488 -118.414846 314 6033ft 122kts
28-Dec-20 12:16 33.941863 -118.447411 282 6024ft 112kts
28-Dec-20 12:17 33.954597 -118.493247 280 6044ft 118kts
28-Dec-20 12:18 33.969242 -118.548650 287 6013ft 124kts
28-Dec-20 12:19 33.993648 -118.610516 288 6168ft 117kts
28-Dec-20 12:20 34.014308 -118.659240 276 7354ft 96kts
28-Dec-20 12:21 34.021327 -118.702342 267 8318ft 88kts
28-Dec-20 12:22 34.029438 -118.737337 280 9166ft 84kts
28-Dec-20 12:24 34.039218 -118.767817 276 9855ft 81kts
28-Dec-20 12:25 34.047138 -118.796878 274 10515ft 76kts
28-Dec-20 12:26 34.055940 -118.823882 278 11168ft 66kts
28-Dec-20 12:27 34.061634 -118.847291 272 11739ft 61kts
28-Dec-20 12:28 34.067954 -118.872238 275 12018ft 86kts
28-Dec-20 12:29 34.077320 -118.907410 277 12028ft 100kts
28-Dec-20 12:30 34.087470 -118.943410 280 11997ft 103kts
28-Dec-20 12:31 34.098270 -118.976449 275 12020ft 95kts
28-Dec-20 12:32 34.105791 -119.006903 272 12077ft 89kts
28-Dec-20 12:33 34.110593 -119.036760 269 12057ft 89kts
28-Dec-20 12:34 34.123887 -119.063919 291 12024ft 101kts
28-Dec-20 12:35 34.139626 -119.089361 289 12018ft 99kts
28-Dec-20 12:36 34.154368 -119.114964 288 12031ft 98kts
28-Dec-20 12:37 34.169043 -119.140355 289 12039ft 98kts
28-Dec-20 12:38 34.184185 -119.166082 290 12043ft 98kts
28-Dec-20 12:38 34.196566 -119.188660 288 12045ft 97kts
28-Dec-20 12:40 34.215083 -119.221735 287 12004ft 97kts
28-Dec-20 12:40 34.226478 -119.246969 284 12009ft 95kts
28-Dec-20 12:42 34.243819 -119.281123 288 12018ft 97kts
28-Dec-20 12:42 34.257039 -119.305424 287 12022ft 97kts
28-Dec-20 12:43 34.273052 -119.334402 287 12054ft 95kts
28-Dec-20 12:44 34.287845 -119.364167 283 12040ft 96kts
28-Dec-20 12:45 34.305543 -119.393269 292 11985ft 104kts
28-Dec-20 12:46 34.322989 -119.422808 285 11979ft 96kts
28-Dec-20 12:47 34.337383 -119.452432 286 11992ft 95kts
28-Dec-20 12:48 34.352835 -119.481425 287 12005ft 96kts
28-Dec-20 12:49 34.369453 -119.510473 289 11995ft 98kts
28-Dec-20 12:50 34.386465 -119.539948 289 11983ft 98kts
28-Dec-20 12:51 34.402505 -119.569795 288 11971ft 98kts
28-Dec-20 12:52 34.417923 -119.598527 289 11956ft 98kts
28-Dec-20 12:53 34.434265 -119.626059 287 11944ft 97kts
28-Dec-20 12:54 34.448962 -119.653836 285 11947ft 96kts
28-Dec-20 12:55 34.463255 -119.681597 287 11985ft 97kts
28-Dec-20 12:56 34.478599 -119.708990 286 12004ft 97kts
28-Dec-20 12:57 34.491737 -119.737104 284 12017ft 96kts
28-Dec-20 12:58 34.505712 -119.765670 302 11971ft 110kts
28-Dec-20 12:59 34.534549 -119.784612 312 11915ft 117kts
28-Dec-20 13:00 34.562019 -119.804685 308 11961ft 110kts
28-Dec-20 13:01 34.589134 -119.826711 309 11979ft 112kts
28-Dec-20 13:02 34.617858 -119.848678 309 11949ft 114kts
28-Dec-20 13:03 34.645802 -119.869521 309 11972ft 111kts
28-Dec-20 13:04 34.674295 -119.890737 313 11975ft 115kts
28-Dec-20 13:05 34.705925 -119.912337 311 11941ft 115kts
28-Dec-20 13:06 34.737485 -119.933926 312 11940ft 115kts
28-Dec-20 13:07 34.768060 -119.956857 309 11923ft 113kts
28-Dec-20 13:08 34.799809 -119.978973 313 11944ft 115kts
28-Dec-20 13:09 34.844112 -120.010295 307 11928ft 89kts
28-Dec-20 13:10 34.856662 -120.017841 304 11741ft 77kts
28-Dec-20 13:11 34.856662 -120.017841 304 11741ft 77kts
28-Dec-20 13:12 34.859381 -120.019569 305 11722ft 65kts
28-Dec-20 13:13 34.867846 -120.025074 301 11318ft 61kts
28-Dec-20 13:14 34.875089 -120.030201 305 10932ft 68kts
28-Dec-20 13:15 34.887610 -120.038421 311 10536ft 82kts
28-Dec-20 13:16 34.907797 -120.048885 289 10955ft 64kts
28-Dec-20 13:17 34.923847 -120.061736 298 11353ft 67kts
28-Dec-20 13:18 34.938213 -120.073452 292 11749ft 55kts
28-Dec-20 13:19 34.951348 -120.085161 297 11986ft 70kts
28-Dec-20 13:20 34.970817 -120.102739 308 11951ft 109kts
28-Dec-20 13:21 34.991674 -120.120137 319 11922ft 126kts
28-Dec-20 13:22 35.021657 -120.144216 325 11926ft 133kts
28-Dec-20 13:23 35.050582 -120.164053 332 11884ft 125kts
28-Dec-20 13:24 35.080218 -120.185034 325 11906ft 123kts
28-Dec-20 13:25 35.108895 -120.207859 326 11916ft 123kts
28-Dec-20 13:26 35.138659 -120.228750 333 11911ft 124kts
28-Dec-20 13:27 35.168467 -120.249306 328 11918ft 123kts
28-Dec-20 13:28 35.198310 -120.270592 328 11903ft 124kts
28-Dec-20 13:29 35.227889 -120.292373 328 11887ft 124kts
28-Dec-20 13:30 35.257945 -120.313245 328 11872ft 124kts
28-Dec-20 13:31 35.287747 -120.334325 331 11878ft 123kts
28-Dec-20 13:32 35.317167 -120.355446 327 11907ft 122kts
28-Dec-20 13:33 35.346199 -120.376355 328 11917ft 123kts
28-Dec-20 13:34 35.375563 -120.397992 323 11937ft 121kts
28-Dec-20 13:35 35.404057 -120.419823 325 11991ft 121kts
28-Dec-20 13:36 35.432406 -120.442461 326 11990ft 124kts
28-Dec-20 13:37 35.461883 -120.464847 327 11959ft 125kts
28-Dec-20 13:38 35.491308 -120.486137 331 11996ft 123kts
28-Dec-20 13:39 35.520129 -120.508695 324 11956ft 125kts
28-Dec-20 13:40 35.549269 -120.530548 328 12006ft 122kts
28-Dec-20 13:41 35.577941 -120.553408 327 12011ft 123kts
28-Dec-20 13:42 35.607423 -120.574651 331 12011ft 124kts
28-Dec-20 13:43 35.637212 -120.596331 329 11997ft 124kts
28-Dec-20 13:44 35.666479 -120.618550 326 11986ft 124kts
28-Dec-20 13:45 35.693678 -120.643915 319 12021ft 121kts
28-Dec-20 13:46 35.719986 -120.670437 320 12018ft 124kts
28-Dec-20 13:47 35.746681 -120.697179 318 11996ft 125kts
28-Dec-20 13:48 35.773889 -120.723569 321 11991ft 124kts
28-Dec-20 13:49 35.802027 -120.748693 319 11971ft 125kts
28-Dec-20 13:50 35.829300 -120.775576 320 11970ft 125kts
28-Dec-20 13:51 35.856818 -120.801404 321 11986ft 125kts
28-Dec-20 13:52 35.884379 -120.828026 317 11983ft 124kts
28-Dec-20 13:53 35.911200 -120.854858 320 12026ft 124kts
28-Dec-20 13:54 35.938754 -120.881812 321 12021ft 126kts
28-Dec-20 13:55 35.966231 -120.908883 320 11996ft 128kts
28-Dec-20 13:56 35.994741 -120.934969 320 11979ft 127kts
28-Dec-20 13:57 36.022682 -120.960890 322 11564ft 124kts
28-Dec-20 13:58 36.050310 -120.985769 321 10971ft 121kts
28-Dec-20 13:59 36.076491 -121.011133 319 10407ft 118kts
28-Dec-20 14:00 36.100922 -121.035111 318 9845ft 108kts
28-Dec-20 14:01 36.124695 -121.057901 314 9289ft 107kts
28-Dec-20 14:02 36.147424 -121.081397 313 8759ft 106kts
28-Dec-20 14:03 36.168741 -121.103423 325 8247ft 97kts
28-Dec-20 14:04 36.189728 -121.124141 326 7698ft 96kts
28-Dec-20 14:05 36.210601 -121.144844 327 7154ft 96kts
28-Dec-20 14:06 36.230505 -121.165608 324 6632ft 98kts
28-Dec-20 14:07 36.251945 -121.186951 329 6063ft 99kts
28-Dec-20 14:09 36.272933 -121.208687 327 5783ft 91kts
28-Dec-20 14:10 36.295109 -121.229833 327 6066ft 113kts
28-Dec-20 14:11 36.319384 -121.254674 322 6013ft 111kts
28-Dec-20 14:12 36.342110 -121.280587 323 5971ft 110kts
28-Dec-20 14:13 36.365834 -121.304312 325 5968ft 109kts
28-Dec-20 14:14 36.389862 -121.327102 326 6035ft 113kts
28-Dec-20 14:15 36.414696 -121.347625 333 5608ft 97kts
28-Dec-20 14:16 36.436474 -121.367978 323 5009ft 98kts
28-Dec-20 14:17 36.460726 -121.392389 322 5002ft 118kts
28-Dec-20 14:18 36.486004 -121.418191 322 5022ft 118kts
28-Dec-20 14:19 36.511995 -121.444182 324 4846ft 128kts
28-Dec-20 14:20 36.538418 -121.472115 321 4154ft 122kts
28-Dec-20 14:21 36.563324 -121.500939 318 3511ft 122kts
28-Dec-20 14:22 36.585529 -121.531547 311 2799ft 116kts
28-Dec-20 14:23 36.606069 -121.560544 322 1894ft 109kts
28-Dec-20 14:24 36.630679 -121.580788 331 1028ft 101kts
28-Dec-20 14:24 36.648437 -121.594335 332 401ft 76kts
28-Dec-20 14:26 36.660751 -121.604382 290 73ft 15kts
28-Dec-20 14:27 36.661640 -121.606131 328 73ft 15kts
28-Dec-20 14:27 36.664486 -121.608355 330 74ft 10kts
28-Dec-20 14:28 36.665202 -121.610209 147 73ft 0kts
28-Dec-20 14:29 36.665202 -121.610209 147 73ft 0kts
28-Dec-20 14:30 36.665202 -121.610209 147 73ft 0kts
28-Dec-20 14:31 36.665202 -121.610209 147 73ft 0kts
28-Dec-20 14:32 36.665202 -121.610209 147 73ft 0kts
28-Dec-20 14:33 36.665202 -121.610209 147 73ft 0kts
28-Dec-20 14:34 36.665202 -121.610209 147 73ft 0kts

Navigation Log

Ident Type
Flight plan parsing failed, navigation log unavailable